sensor_id;sensor_type;location;lat;lon;timestamp;P1;durP1;ratioP1;P2;durP2;ratioP2
36789;SDS011;22740;52.182;8.780;2023-06-10T00:05:01;10.68;;;5.03;;
36789;SDS011;22740;52.182;8.780;2023-06-10T00:11:03;11.88;;;5.38;;
36789;SDS011;22740;52.182;8.780;2023-06-10T00:17:05;9.65;;;5.07;;
36789;SDS011;22740;52.182;8.780;2023-06-10T00:23:10;8.15;;;5.00;;
36789;SDS011;22740;52.182;8.780;2023-06-10T00:29:12;9.57;;;4.30;;
36789;SDS011;22740;52.182;8.780;2023-06-10T00:35:15;11.02;;;4.32;;
36789;SDS011;22740;52.182;8.780;2023-06-10T00:41:17;11.48;;;5.15;;
36789;SDS011;22740;52.182;8.780;2023-06-10T00:47:19;7.63;;;4.90;;
36789;SDS011;22740;52.182;8.780;2023-06-10T00:53:21;8.60;;;4.15;;
36789;SDS011;22740;52.182;8.780;2023-06-10T00:59:24;9.90;;;4.35;;
36789;SDS011;22740;52.182;8.780;2023-06-10T01:05:26;8.95;;;4.22;;
36789;SDS011;22740;52.182;8.780;2023-06-10T01:11:29;7.70;;;4.15;;
36789;SDS011;22740;52.182;8.780;2023-06-10T01:24:00;9.48;;;4.13;;
36789;SDS011;22740;52.182;8.780;2023-06-10T01:30:08;9.20;;;4.18;;
36789;SDS011;22740;52.182;8.780;2023-06-10T01:36:17;9.27;;;3.92;;
36789;SDS011;22740;52.182;8.780;2023-06-10T01:42:20;8.10;;;4.50;;
36789;SDS011;22740;52.182;8.780;2023-06-10T01:48:23;7.72;;;4.63;;
36789;SDS011;22740;52.182;8.780;2023-06-10T01:54:25;10.30;;;5.15;;
36789;SDS011;22740;52.182;8.780;2023-06-10T02:00:27;7.47;;;4.65;;
36789;SDS011;22740;52.182;8.780;2023-06-10T02:06:29;11.10;;;4.40;;
36789;SDS011;22740;52.182;8.780;2023-06-10T02:12:31;8.15;;;4.15;;
36789;SDS011;22740;52.182;8.780;2023-06-10T02:18:33;8.55;;;4.72;;
36789;SDS011;22740;52.182;8.780;2023-06-10T02:24:35;8.15;;;4.20;;
36789;SDS011;22740;52.182;8.780;2023-06-10T02:30:42;11.20;;;4.28;;
36789;SDS011;22740;52.182;8.780;2023-06-10T02:36:44;9.90;;;4.20;;
36789;SDS011;22740;52.182;8.780;2023-06-10T02:42:46;9.07;;;3.90;;
36789;SDS011;22740;52.182;8.780;2023-06-10T02:48:48;7.45;;;4.10;;
36789;SDS011;22740;52.182;8.780;2023-06-10T02:54:53;6.68;;;3.72;;
36789;SDS011;22740;52.182;8.780;2023-06-10T03:07:00;7.55;;;3.65;;
36789;SDS011;22740;52.182;8.780;2023-06-10T03:13:05;6.50;;;3.42;;
36789;SDS011;22740;52.182;8.780;2023-06-10T03:19:07;9.73;;;3.67;;
36789;SDS011;22740;52.182;8.780;2023-06-10T03:25:09;7.57;;;3.15;;
36789;SDS011;22740;52.182;8.780;2023-06-10T03:31:15;5.40;;;3.25;;
36789;SDS011;22740;52.182;8.780;2023-06-10T03:37:18;9.88;;;3.78;;
36789;SDS011;22740;52.182;8.780;2023-06-10T03:43:20;7.60;;;3.70;;
36789;SDS011;22740;52.182;8.780;2023-06-10T03:49:22;7.40;;;3.72;;
36789;SDS011;22740;52.182;8.780;2023-06-10T03:55:28;8.30;;;3.53;;
36789;SDS011;22740;52.182;8.780;2023-06-10T04:01:30;11.65;;;3.33;;
36789;SDS011;22740;52.182;8.780;2023-06-10T04:07:33;7.45;;;3.38;;
36789;SDS011;22740;52.182;8.780;2023-06-10T04:13:35;6.38;;;3.35;;
36789;SDS011;22740;52.182;8.780;2023-06-10T04:19:39;7.93;;;3.53;;
36789;SDS011;22740;52.182;8.780;2023-06-10T04:25:41;7.75;;;3.10;;
36789;SDS011;22740;52.182;8.780;2023-06-10T04:31:44;8.13;;;3.63;;
36789;SDS011;22740;52.182;8.780;2023-06-10T04:37:48;10.18;;;3.65;;
36789;SDS011;22740;52.182;8.780;2023-06-10T04:43:49;7.93;;;3.70;;
36789;SDS011;22740;52.182;8.780;2023-06-10T04:49:52;9.60;;;3.40;;
36789;SDS011;22740;52.182;8.780;2023-06-10T04:55:54;7.78;;;3.45;;
36789;SDS011;22740;52.182;8.780;2023-06-10T05:01:56;7.65;;;3.13;;
36789;SDS011;22740;52.182;8.780;2023-06-10T05:07:58;8.45;;;4.00;;
36789;SDS011;22740;52.182;8.780;2023-06-10T05:14:00;8.85;;;3.80;;
36789;SDS011;22740;52.182;8.780;2023-06-10T05:20:02;9.52;;;3.30;;
36789;SDS011;22740;52.182;8.780;2023-06-10T05:26:05;9.77;;;3.60;;
36789;SDS011;22740;52.182;8.780;2023-06-10T05:32:07;7.90;;;3.75;;
36789;SDS011;22740;52.182;8.780;2023-06-10T05:38:10;11.65;;;3.90;;
36789;SDS011;22740;52.182;8.780;2023-06-10T05:44:12;6.43;;;3.55;;
36789;SDS011;22740;52.182;8.780;2023-06-10T05:50:14;8.25;;;3.80;;
36789;SDS011;22740;52.182;8.780;2023-06-10T05:56:16;7.43;;;3.97;;
36789;SDS011;22740;52.182;8.780;2023-06-10T06:02:19;7.00;;;3.50;;
36789;SDS011;22740;52.182;8.780;2023-06-10T06:08:21;8.32;;;4.00;;
36789;SDS011;22740;52.182;8.780;2023-06-10T06:14:23;8.48;;;3.28;;
36789;SDS011;22740;52.182;8.780;2023-06-10T06:20:25;6.35;;;3.55;;
36789;SDS011;22740;52.182;8.780;2023-06-10T06:26:27;11.63;;;4.15;;
36789;SDS011;22740;52.182;8.780;2023-06-10T06:32:29;8.02;;;3.72;;
36789;SDS011;22740;52.182;8.780;2023-06-10T06:38:31;7.68;;;3.90;;
36789;SDS011;22740;52.182;8.780;2023-06-10T06:44:33;9.27;;;2.95;;
36789;SDS011;22740;52.182;8.780;2023-06-10T06:50:35;9.05;;;3.70;;
36789;SDS011;22740;52.182;8.780;2023-06-10T06:56:37;11.35;;;4.38;;
36789;SDS011;22740;52.182;8.780;2023-06-10T07:02:39;13.48;;;3.92;;
36789;SDS011;22740;52.182;8.780;2023-06-10T07:08:41;7.50;;;3.80;;
36789;SDS011;22740;52.182;8.780;2023-06-10T07:14:44;9.38;;;3.55;;
36789;SDS011;22740;52.182;8.780;2023-06-10T07:20:46;8.55;;;3.78;;
36789;SDS011;22740;52.182;8.780;2023-06-10T07:26:48;9.00;;;3.53;;
36789;SDS011;22740;52.182;8.780;2023-06-10T07:32:50;7.32;;;3.78;;
36789;SDS011;22740;52.182;8.780;2023-06-10T07:38:53;7.57;;;3.57;;
36789;SDS011;22740;52.182;8.780;2023-06-10T07:44:56;6.07;;;3.50;;
36789;SDS011;22740;52.182;8.780;2023-06-10T07:50:58;11.38;;;3.83;;
36789;SDS011;22740;52.182;8.780;2023-06-10T07:57:00;7.78;;;4.15;;
36789;SDS011;22740;52.182;8.780;2023-06-10T08:03:02;11.98;;;4.30;;
36789;SDS011;22740;52.182;8.780;2023-06-10T08:09:04;11.73;;;5.25;;
36789;SDS011;22740;52.182;8.780;2023-06-10T08:15:07;8.85;;;5.03;;
36789;SDS011;22740;52.182;8.780;2023-06-10T08:21:09;13.03;;;5.23;;
36789;SDS011;22740;52.182;8.780;2023-06-10T08:27:11;12.48;;;5.63;;
36789;SDS011;22740;52.182;8.780;2023-06-10T08:33:13;13.82;;;5.82;;
36789;SDS011;22740;52.182;8.780;2023-06-10T08:39:16;9.48;;;5.53;;
36789;SDS011;22740;52.182;8.780;2023-06-10T08:45:18;10.48;;;6.00;;
36789;SDS011;22740;52.182;8.780;2023-06-10T08:51:23;9.70;;;5.20;;
36789;SDS011;22740;52.182;8.780;2023-06-10T08:57:27;8.25;;;4.93;;
36789;SDS011;22740;52.182;8.780;2023-06-10T09:03:29;11.27;;;5.07;;
36789;SDS011;22740;52.182;8.780;2023-06-10T09:09:32;8.07;;;4.60;;
36789;SDS011;22740;52.182;8.780;2023-06-10T09:15:35;11.00;;;4.43;;
36789;SDS011;22740;52.182;8.780;2023-06-10T09:21:37;13.20;;;4.85;;
36789;SDS011;22740;52.182;8.780;2023-06-10T09:27:46;11.57;;;4.97;;
36789;SDS011;22740;52.182;8.780;2023-06-10T09:34:03;9.18;;;4.38;;
36789;SDS011;22740;52.182;8.780;2023-06-10T09:40:07;11.20;;;4.40;;
36789;SDS011;22740;52.182;8.780;2023-06-10T09:46:18;9.13;;;3.88;;
36789;SDS011;22740;52.182;8.780;2023-06-10T09:52:22;9.70;;;4.72;;
36789;SDS011;22740;52.182;8.780;2023-06-10T09:58:38;13.25;;;4.50;;
36789;SDS011;22740;52.182;8.780;2023-06-10T10:04:40;7.35;;;4.10;;
36789;SDS011;22740;52.182;8.780;2023-06-10T10:10:43;14.73;;;4.57;;
36789;SDS011;22740;52.182;8.780;2023-06-10T10:16:45;9.65;;;4.63;;
36789;SDS011;22740;52.182;8.780;2023-06-10T10:22:49;12.15;;;4.95;;
36789;SDS011;22740;52.182;8.780;2023-06-10T10:35:21;9.35;;;4.03;;
36789;SDS011;22740;52.182;8.780;2023-06-10T10:41:24;13.18;;;4.03;;
36789;SDS011;22740;52.182;8.780;2023-06-10T10:47:28;7.93;;;3.67;;
36789;SDS011;22740;52.182;8.780;2023-06-10T10:53:32;6.18;;;3.53;;
36789;SDS011;22740;52.182;8.780;2023-06-10T11:06:01;7.35;;;3.17;;
36789;SDS011;22740;52.182;8.780;2023-06-10T11:12:21;4.90;;;3.20;;
36789;SDS011;22740;52.182;8.780;2023-06-10T11:18:26;7.32;;;2.80;;
36789;SDS011;22740;52.182;8.780;2023-06-10T11:24:30;5.47;;;2.92;;
36789;SDS011;22740;52.182;8.780;2023-06-10T11:30:34;5.83;;;2.90;;
36789;SDS011;22740;52.182;8.780;2023-06-10T11:36:37;6.85;;;2.90;;
36789;SDS011;22740;52.182;8.780;2023-06-10T11:42:44;6.85;;;2.92;;
36789;SDS011;22740;52.182;8.780;2023-06-10T11:48:54;5.53;;;2.95;;
36789;SDS011;22740;52.182;8.780;2023-06-10T11:54:57;7.38;;;2.85;;
36789;SDS011;22740;52.182;8.780;2023-06-10T12:00:59;5.63;;;2.78;;
36789;SDS011;22740;52.182;8.780;2023-06-10T12:07:02;9.73;;;2.72;;
36789;SDS011;22740;52.182;8.780;2023-06-10T12:13:04;7.27;;;3.07;;
36789;SDS011;22740;52.182;8.780;2023-06-10T12:19:06;5.43;;;2.87;;
36789;SDS011;22740;52.182;8.780;2023-06-10T12:25:09;9.90;;;2.90;;
36789;SDS011;22740;52.182;8.780;2023-06-10T12:31:13;7.43;;;3.10;;
36789;SDS011;22740;52.182;8.780;2023-06-10T12:37:16;6.85;;;3.20;;
36789;SDS011;22740;52.182;8.780;2023-06-10T12:43:25;11.33;;;3.73;;
36789;SDS011;22740;52.182;8.780;2023-06-10T12:49:27;7.32;;;3.38;;
36789;SDS011;22740;52.182;8.780;2023-06-10T12:55:29;8.32;;;3.97;;
36789;SDS011;22740;52.182;8.780;2023-06-10T13:01:31;6.65;;;3.15;;
36789;SDS011;22740;52.182;8.780;2023-06-10T13:07:34;13.63;;;4.35;;
36789;SDS011;22740;52.182;8.780;2023-06-10T13:13:36;8.80;;;3.60;;
36789;SDS011;22740;52.182;8.780;2023-06-10T13:19:38;9.70;;;4.30;;
36789;SDS011;22740;52.182;8.780;2023-06-10T13:25:40;7.57;;;3.88;;
36789;SDS011;22740;52.182;8.780;2023-06-10T13:31:45;5.30;;;3.60;;
36789;SDS011;22740;52.182;8.780;2023-06-10T13:37:47;8.73;;;3.97;;
36789;SDS011;22740;52.182;8.780;2023-06-10T13:43:49;6.77;;;3.90;;
36789;SDS011;22740;52.182;8.780;2023-06-10T13:49:51;9.60;;;4.30;;
36789;SDS011;22740;52.182;8.780;2023-06-10T13:55:53;7.83;;;4.03;;
36789;SDS011;22740;52.182;8.780;2023-06-10T14:01:55;8.98;;;4.30;;
36789;SDS011;22740;52.182;8.780;2023-06-10T14:07:58;7.80;;;4.53;;
36789;SDS011;22740;52.182;8.780;2023-06-10T14:14:00;9.20;;;3.97;;
36789;SDS011;22740;52.182;8.780;2023-06-10T14:20:02;10.37;;;4.70;;
36789;SDS011;22740;52.182;8.780;2023-06-10T14:26:05;10.43;;;4.50;;
36789;SDS011;22740;52.182;8.780;2023-06-10T14:32:08;9.73;;;4.70;;
36789;SDS011;22740;52.182;8.780;2023-06-10T14:44:13;8.80;;;4.70;;
36789;SDS011;22740;52.182;8.780;2023-06-10T14:50:15;7.97;;;4.63;;
36789;SDS011;22740;52.182;8.780;2023-06-10T14:56:17;9.23;;;4.70;;
36789;SDS011;22740;52.182;8.780;2023-06-10T15:02:20;8.03;;;4.57;;
36789;SDS011;22740;52.182;8.780;2023-06-10T15:08:23;9.88;;;4.97;;
36789;SDS011;22740;52.182;8.780;2023-06-10T15:14:29;6.15;;;4.18;;
36789;SDS011;22740;52.182;8.780;2023-06-10T15:20:31;7.03;;;4.38;;
36789;SDS011;22740;52.182;8.780;2023-06-10T15:26:33;8.07;;;4.07;;
36789;SDS011;22740;52.182;8.780;2023-06-10T15:32:35;8.57;;;4.70;;
36789;SDS011;22740;52.182;8.780;2023-06-10T15:38:37;6.93;;;4.23;;
36789;SDS011;22740;52.182;8.780;2023-06-10T15:44:39;8.53;;;4.43;;
36789;SDS011;22740;52.182;8.780;2023-06-10T15:50:41;10.00;;;4.60;;
36789;SDS011;22740;52.182;8.780;2023-06-10T16:02:46;8.88;;;4.15;;
36789;SDS011;22740;52.182;8.780;2023-06-10T16:08:48;10.90;;;4.63;;
36789;SDS011;22740;52.182;8.780;2023-06-10T16:14:50;6.07;;;3.80;;
36789;SDS011;22740;52.182;8.780;2023-06-10T16:20:52;7.37;;;4.20;;
36789;SDS011;22740;52.182;8.780;2023-06-10T16:26:54;8.03;;;4.60;;
36789;SDS011;22740;52.182;8.780;2023-06-10T16:32:56;7.30;;;4.27;;
36789;SDS011;22740;52.182;8.780;2023-06-10T16:38:58;5.87;;;3.90;;
36789;SDS011;22740;52.182;8.780;2023-06-10T16:45:00;7.00;;;4.57;;
36789;SDS011;22740;52.182;8.780;2023-06-10T16:51:03;7.43;;;4.15;;
36789;SDS011;22740;52.182;8.780;2023-06-10T16:57:05;8.27;;;4.50;;
36789;SDS011;22740;52.182;8.780;2023-06-10T17:03:07;5.57;;;4.20;;
36789;SDS011;22740;52.182;8.780;2023-06-10T17:09:09;10.40;;;4.05;;
36789;SDS011;22740;52.182;8.780;2023-06-10T17:15:11;6.80;;;3.67;;
36789;SDS011;22740;52.182;8.780;2023-06-10T17:21:13;5.70;;;4.40;;
36789;SDS011;22740;52.182;8.780;2023-06-10T17:27:15;6.80;;;3.87;;
36789;SDS011;22740;52.182;8.780;2023-06-10T17:33:17;6.93;;;4.13;;
36789;SDS011;22740;52.182;8.780;2023-06-10T17:39:19;12.50;;;4.50;;
36789;SDS011;22740;52.182;8.780;2023-06-10T17:45:21;8.20;;;4.00;;
36789;SDS011;22740;52.182;8.780;2023-06-10T17:51:23;6.87;;;4.23;;
36789;SDS011;22740;52.182;8.780;2023-06-10T17:57:25;9.35;;;4.18;;
36789;SDS011;22740;52.182;8.780;2023-06-10T18:03:29;7.28;;;4.15;;
36789;SDS011;22740;52.182;8.780;2023-06-10T18:09:31;5.75;;;4.13;;
36789;SDS011;22740;52.182;8.780;2023-06-10T18:15:33;8.75;;;4.65;;
36789;SDS011;22740;52.182;8.780;2023-06-10T18:21:38;9.18;;;4.82;;
36789;SDS011;22740;52.182;8.780;2023-06-10T18:27:40;6.13;;;4.03;;
36789;SDS011;22740;52.182;8.780;2023-06-10T18:33:42;5.73;;;4.20;;
36789;SDS011;22740;52.182;8.780;2023-06-10T18:39:44;9.35;;;4.40;;
36789;SDS011;22740;52.182;8.780;2023-06-10T18:45:46;8.27;;;4.83;;
36789;SDS011;22740;52.182;8.780;2023-06-10T18:51:48;6.40;;;4.73;;
36789;SDS011;22740;52.182;8.780;2023-06-10T18:57:50;12.60;;;4.50;;
36789;SDS011;22740;52.182;8.780;2023-06-10T19:03:52;9.38;;;4.32;;
36789;SDS011;22740;52.182;8.780;2023-06-10T19:09:55;9.07;;;4.07;;
36789;SDS011;22740;52.182;8.780;2023-06-10T19:15:57;9.13;;;4.60;;
36789;SDS011;22740;52.182;8.780;2023-06-10T19:21:59;7.60;;;4.40;;
36789;SDS011;22740;52.182;8.780;2023-06-10T19:28:01;10.32;;;4.10;;
36789;SDS011;22740;52.182;8.780;2023-06-10T19:34:03;6.67;;;3.80;;
36789;SDS011;22740;52.182;8.780;2023-06-10T19:40:06;5.95;;;4.28;;
36789;SDS011;22740;52.182;8.780;2023-06-10T19:46:08;7.75;;;4.13;;
36789;SDS011;22740;52.182;8.780;2023-06-10T19:52:11;6.23;;;3.60;;
36789;SDS011;22740;52.182;8.780;2023-06-10T19:58:13;5.95;;;4.10;;
36789;SDS011;22740;52.182;8.780;2023-06-10T20:04:15;8.45;;;3.85;;
36789;SDS011;22740;52.182;8.780;2023-06-10T20:10:17;7.82;;;3.90;;
36789;SDS011;22740;52.182;8.780;2023-06-10T20:16:19;7.38;;;4.47;;
36789;SDS011;22740;52.182;8.780;2023-06-10T20:22:21;6.18;;;4.30;;
36789;SDS011;22740;52.182;8.780;2023-06-10T20:28:24;7.30;;;3.70;;
36789;SDS011;22740;52.182;8.780;2023-06-10T20:40:30;6.68;;;3.75;;
36789;SDS011;22740;52.182;8.780;2023-06-10T20:46:31;6.43;;;3.78;;
36789;SDS011;22740;52.182;8.780;2023-06-10T20:52:34;9.40;;;4.20;;
36789;SDS011;22740;52.182;8.780;2023-06-10T20:58:36;7.18;;;4.22;;
36789;SDS011;22740;52.182;8.780;2023-06-10T21:04:39;7.82;;;4.65;;
36789;SDS011;22740;52.182;8.780;2023-06-10T21:10:41;6.32;;;4.20;;
36789;SDS011;22740;52.182;8.780;2023-06-10T21:16:43;10.75;;;4.97;;
36789;SDS011;22740;52.182;8.780;2023-06-10T21:22:46;9.50;;;4.38;;
36789;SDS011;22740;52.182;8.780;2023-06-10T21:28:48;6.65;;;4.63;;
36789;SDS011;22740;52.182;8.780;2023-06-10T21:34:50;7.00;;;4.07;;
36789;SDS011;22740;52.182;8.780;2023-06-10T21:40:54;7.28;;;4.13;;
36789;SDS011;22740;52.182;8.780;2023-06-10T21:46:56;6.13;;;4.35;;
36789;SDS011;22740;52.182;8.780;2023-06-10T21:52:58;7.18;;;3.92;;
36789;SDS011;22740;52.182;8.780;2023-06-10T21:59:01;6.57;;;4.00;;
36789;SDS011;22740;52.182;8.780;2023-06-10T22:05:04;6.93;;;4.20;;
36789;SDS011;22740;52.182;8.780;2023-06-10T22:11:06;7.35;;;3.70;;
36789;SDS011;22740;52.182;8.780;2023-06-10T22:17:10;6.57;;;3.90;;
36789;SDS011;22740;52.182;8.780;2023-06-10T22:29:21;6.18;;;4.28;;
36789;SDS011;22740;52.182;8.780;2023-06-10T22:35:23;5.40;;;4.10;;
36789;SDS011;22740;52.182;8.780;2023-06-10T22:41:25;7.43;;;4.55;;
36789;SDS011;22740;52.182;8.780;2023-06-10T22:47:27;7.50;;;4.95;;
36789;SDS011;22740;52.182;8.780;2023-06-10T22:53:29;6.45;;;4.93;;
36789;SDS011;22740;52.182;8.780;2023-06-10T22:59:32;7.40;;;4.80;;
36789;SDS011;22740;52.182;8.780;2023-06-10T23:05:34;10.68;;;4.90;;
36789;SDS011;22740;52.182;8.780;2023-06-10T23:11:36;6.88;;;5.18;;
36789;SDS011;22740;52.182;8.780;2023-06-10T23:17:38;5.63;;;4.75;;
36789;SDS011;22740;52.182;8.780;2023-06-10T23:23:41;8.40;;;4.95;;
36789;SDS011;22740;52.182;8.780;2023-06-10T23:29:42;11.18;;;4.93;;
36789;SDS011;22740;52.182;8.780;2023-06-10T23:35:58;5.95;;;4.68;;
36789;SDS011;22740;52.182;8.780;2023-06-10T23:42:00;6.15;;;4.95;;
36789;SDS011;22740;52.182;8.780;2023-06-10T23:48:02;6.22;;;4.43;;
36789;SDS011;22740;52.182;8.780;2023-06-10T23:54:04;6.10;;;4.60;;
